Decoded Metar for KESN (EASTON/NEWNAM in MD, USA) (IATA:ESN) | Meteo·Mobile Aviation Weather
aviador You're here:

KESN Decoded Metar

EASTON/NEWNAM in MD, USA
Report Time2018-12-19 15:50:00
UTC Time2018-12-19 16:25:02
Flight Rules vfr VFR
Wind190° at 06 kt
W.Decomp.*RWY 22: 5.6 kt HW 2.1 kt LCW
RWY 15: 3.9 kt HW 4.6 kt RCW
W.Rank190° ranks 9
Current wind is below 190° avg. (7.5)
Visibility9999 m
Phenomena:N/A
Clouds:Broken 200 Hf
Expected CloudBase > 3,600 ft AGL from Temp-Dew spread
Ceiling20,000 ft
Temp07°C (ISA -8)
Dew Point-2°C (53% RH)
AAT2.6°C
QNH1025 hPa
Density Alt-1,204 ft
Elevation72 ft
Report Wrong Elevation
Raw Report
KESN 191550Z 19006KT 10SM BKN200 07/M02 A3026=

Extra information for KESN:More info

Metar Taf Metar & Taf Last 4 Metars F.Rules Stats Wind Profile Meteogram Temp Stats Airport Information Weather charts Add Link Nearby VenuesMetar ALERT Operation Metar Decoded Social comments

AIRNAV info for KESN